Time;durP1;ratioP1;P1;durP2;ratioP2;P2;SDS_P1;SDS_P2;PMS_P1;PMS_P2;Temp;Humidity;BMP_temperature;BMP_pressure;BME280_temperature;BME280_humidity;BME280_pressure;Samples;Min_cycle;Max_cycle;Signal;HPM_P1;HPM_P2
2022/01/18 00:01:23;;;;;;;;;;;22.50;29.30;;;;;;5087353;28;20023;-65
2022/01/18 00:03:51;;;;;;;;;;;22.50;29.30;;;;;;5068758;28;19920;-64
2022/01/18 00:06:18;;;;;;;;;;;22.50;29.30;;;;;;5087221;28;19978;-64
2022/01/18 00:08:45;;;;;;;;;;;22.50;29.30;;;;;;5041754;28;1292925;-64
2022/01/18 00:11:12;;;;;;;;;;;22.50;29.30;;;;;;5087963;28;20008;-64
2022/01/18 00:13:45;;;;;;;;;;;22.50;29.30;;;;;;5087418;28;19924;-64
2022/01/18 00:16:28;;;;;;;;;;;22.50;29.30;;;;;;5087743;28;20380;-64
2022/01/18 00:19:00;;;;;;;;;;;22.50;29.30;;;;;;5087153;28;19920;-63
2022/01/18 00:21:48;;;;;;;;;;;22.50;29.30;;;;;;5087591;28;20389;-63
2022/01/18 00:24:15;;;;;;;;;;;22.50;29.20;;;;;;5086845;28;20567;-63
2022/01/18 00:26:42;;;;;;;;;;;22.50;29.20;;;;;;5087110;28;19923;-64
2022/01/18 00:29:12;;;;;;;;;;;22.50;29.20;;;;;;5087473;28;20003;-64
2022/01/18 00:32:06;;;;;;;;;;;22.40;29.20;;;;;;5087380;28;20016;-64
2022/01/18 00:34:30;;;;;;;;;;;22.40;29.20;;;;;;5087308;28;19977;-64
2022/01/18 00:37:11;;;;;;;;;;;22.40;29.20;;;;;;5085926;28;20369;-64
2022/01/18 00:39:40;;;;;;;;;;;22.40;29.20;;;;;;5086952;28;19959;-63
2022/01/18 00:42:08;;;;;;;;;;;22.40;29.20;;;;;;5087407;28;19927;-63
2022/01/18 00:44:35;;;;;;;;;;;22.40;29.20;;;;;;5086629;28;20294;-63
2022/01/18 00:47:03;;;;;;;;;;;22.40;29.30;;;;;;5086804;28;20419;-64
2022/01/18 00:49:31;;;;;;;;;;;22.40;29.20;;;;;;5086963;28;19924;-63
2022/01/18 00:52:03;;;;;;;;;;;22.40;29.20;;;;;;5087758;28;20231;-64
2022/01/18 00:54:40;;;;;;;;;;;22.40;29.20;;;;;;5086860;28;20015;-63
2022/01/18 00:57:07;;;;;;;;;;;22.40;29.20;;;;;;5087334;28;20174;-64
2022/01/18 00:59:34;;;;;;;;;;;22.40;29.20;;;;;;5086960;28;20315;-64
2022/01/18 01:02:01;;;;;;;;;;;22.40;29.30;;;;;;5087193;28;19923;-63
2022/01/18 01:04:32;;;;;;;;;;;22.40;29.20;;;;;;5086557;28;19973;-63
2022/01/18 01:06:59;;;;;;;;;;;22.40;29.20;;;;;;5086792;28;19920;-64
2022/01/18 01:09:26;;;;;;;;;;;22.40;29.20;;;;;;5086787;28;19998;-64
2022/01/18 01:11:53;;;;;;;;;;;22.40;29.20;;;;;;5086678;28;20356;-64
2022/01/18 01:14:24;;;;;;;;;;;22.40;29.20;;;;;;5086730;28;19920;-64
2022/01/18 01:17:23;;;;;;;;;;;22.40;29.30;;;;;;5086809;28;20415;-64
2022/01/18 01:31:58;;;;;;;;;;;22.40;29.20;;;;;;5086416;28;19920;-64
2022/01/18 01:34:07;;;;;;;;;;;22.40;29.30;;;;;;5086212;28;19920;-64
2022/01/18 01:36:44;;;;;;;;;;;22.30;29.30;;;;;;5085799;28;20421;-64
2022/01/18 01:42:13;;;;;;;;;;;22.30;29.30;;;;;;5086753;28;20319;-65
2022/01/18 01:44:44;;;;;;;;;;;22.30;29.20;;;;;;5086020;28;19976;-64
2022/01/18 01:47:12;;;;;;;;;;;22.30;29.20;;;;;;5086048;28;20450;-64
2022/01/18 01:49:39;;;;;;;;;;;22.30;29.20;;;;;;5086299;28;20028;-64
2022/01/18 01:52:08;;;;;;;;;;;22.30;29.20;;;;;;5083981;28;19997;-64
2022/01/18 01:54:35;;;;;;;;;;;22.30;29.20;;;;;;5085617;28;20348;-64
2022/01/18 01:57:02;;;;;;;;;;;22.30;29.20;;;;;;5086711;28;19920;-65
2022/01/18 01:59:29;;;;;;;;;;;22.30;29.20;;;;;;5086223;28;20626;-64
2022/01/18 02:01:56;;;;;;;;;;;22.20;29.20;;;;;;5086412;28;19978;-64
2022/01/18 02:04:23;;;;;;;;;;;22.20;29.20;;;;;;5085986;28;19977;-64
2022/01/18 02:06:51;;;;;;;;;;;22.20;29.20;;;;;;5084897;28;19974;-64
2022/01/18 02:09:18;;;;;;;;;;;22.20;29.20;;;;;;5085246;28;19920;-64
2022/01/18 02:11:46;;;;;;;;;;;22.20;29.20;;;;;;5085609;28;19954;-65
2022/01/18 02:14:19;;;;;;;;;;;22.20;29.20;;;;;;5086123;28;19974;-64
2022/01/18 02:22:20;;;;;;;;;;;22.20;29.10;;;;;;5085811;28;20737;-64
2022/01/18 02:24:46;;;;;;;;;;;22.20;29.10;;;;;;5085541;28;19920;-64
2022/01/18 02:27:14;;;;;;;;;;;22.20;29.20;;;;;;5085016;28;19931;-64
2022/01/18 02:29:41;;;;;;;;;;;22.20;29.10;;;;;;5085377;28;19968;-64
2022/01/18 02:32:08;;;;;;;;;;;22.10;29.10;;;;;;5085803;28;20003;-64
2022/01/18 02:34:36;;;;;;;;;;;22.20;29.20;;;;;;5085993;28;19960;-64
2022/01/18 02:37:04;;;;;;;;;;;22.10;29.10;;;;;;5085802;28;20607;-64
2022/01/18 02:39:31;;;;;;;;;;;22.10;29.10;;;;;;5068264;28;20002;-64
2022/01/18 02:42:06;;;;;;;;;;;22.20;29.20;;;;;;5085725;28;19990;-64
2022/01/18 02:44:34;;;;;;;;;;;22.20;29.10;;;;;;5085485;28;19989;-64
2022/01/18 02:47:02;;;;;;;;;;;22.20;29.20;;;;;;5084076;28;19955;-64
2022/01/18 02:49:29;;;;;;;;;;;22.10;29.10;;;;;;5086080;28;19997;-63
2022/01/18 02:51:57;;;;;;;;;;;22.20;29.20;;;;;;5085687;28;20591;-64
2022/01/18 02:54:24;;;;;;;;;;;22.20;29.20;;;;;;5085595;28;20010;-64
2022/01/18 02:56:56;;;;;;;;;;;22.20;29.20;;;;;;5085673;28;19920;-66
2022/01/18 02:59:31;;;;;;;;;;;22.20;29.20;;;;;;5085777;28;19924;-64
2022/01/18 03:04:47;;;;;;;;;;;22.20;29.20;;;;;;5089178;28;20411;-63
2022/01/18 03:07:14;;;;;;;;;;;22.20;29.20;;;;;;5087954;28;19926;-64
2022/01/18 03:09:41;;;;;;;;;;;22.10;29.20;;;;;;5089047;28;20000;-63
2022/01/18 03:12:09;;;;;;;;;;;22.10;29.20;;;;;;5088554;28;20276;-64
2022/01/18 03:14:36;;;;;;;;;;;22.20;29.30;;;;;;5088737;28;19959;-64
2022/01/18 03:17:03;;;;;;;;;;;22.10;29.20;;;;;;5088883;28;20114;-64
2022/01/18 03:19:30;;;;;;;;;;;22.10;29.20;;;;;;5088806;28;19998;-63
2022/01/18 03:21:58;;;;;;;;;;;22.10;29.30;;;;;;5089140;28;20303;-64
2022/01/18 03:24:44;;;;;;;;;;;22.10;29.30;;;;;;5088772;28;20030;-63
2022/01/18 03:29:59;;;;;;;;;;;22.10;29.30;;;;;;5087901;28;19955;-64
2022/01/18 03:32:26;;;;;;;;;;;22.10;29.30;;;;;;5103345;28;20441;-63
2022/01/18 03:34:53;;;;;;;;;;;22.10;29.30;;;;;;5088541;28;19920;-63
2022/01/18 03:37:20;;;;;;;;;;;22.10;29.30;;;;;;5088451;28;20380;-64
2022/01/18 03:39:47;;;;;;;;;;;22.10;29.30;;;;;;5104454;28;19979;-64
2022/01/18 03:42:36;;;;;;;;;;;22.10;29.40;;;;;;5088492;28;19939;-63
2022/01/18 03:45:04;;;;;;;;;;;22.10;29.40;;;;;;5088493;28;19927;-64
2022/01/18 03:47:32;;;;;;;;;;;22.10;29.40;;;;;;5088427;28;19971;-63
2022/01/18 03:49:59;;;;;;;;;;;22.10;29.40;;;;;;5088279;28;20106;-64
2022/01/18 03:52:26;;;;;;;;;;;22.10;29.40;;;;;;5087861;28;19924;-63
2022/01/18 03:54:54;;;;;;;;;;;22.10;29.40;;;;;;5087978;28;20380;-63
2022/01/18 03:57:21;;;;;;;;;;;22.00;29.30;;;;;;5088353;28;20036;-64
2022/01/18 03:59:48;;;;;;;;;;;22.10;29.40;;;;;;5087823;28;20453;-64
2022/01/18 04:02:15;;;;;;;;;;;22.00;29.40;;;;;;5088289;28;19978;-63
2022/01/18 04:04:43;;;;;;;;;;;22.00;29.30;;;;;;5087209;28;20151;-63
2022/01/18 04:07:10;;;;;;;;;;;22.00;29.40;;;;;;5069488;28;19981;-64
2022/01/18 04:09:37;;;;;;;;;;;22.00;29.40;;;;;;5088555;28;19920;-62
2022/01/18 04:12:05;;;;;;;;;;;22.00;29.40;;;;;;5086114;28;20345;-64
2022/01/18 04:14:32;;;;;;;;;;;22.00;29.40;;;;;;5087531;28;19920;-63
2022/01/18 04:17:17;;;;;;;;;;;22.00;29.40;;;;;;5088186;28;20346;-63
2022/01/18 04:28:13;;;;;;;;;;;22.00;29.40;;;;;;5087795;28;20266;-63
2022/01/18 04:30:40;;;;;;;;;;;22.00;29.40;;;;;;5087270;28;20014;-63
2022/01/18 04:33:07;;;;;;;;;;;22.00;29.40;;;;;;5086633;28;20342;-64
2022/01/18 04:35:34;;;;;;;;;;;22.00;29.40;;;;;;5085829;28;19959;-63
2022/01/18 04:38:01;;;;;;;;;;;22.00;29.40;;;;;;5086371;28;19920;-63
2022/01/18 04:40:30;;;;;;;;;;;22.00;29.40;;;;;;5087819;28;20296;-63
2022/01/18 04:43:05;;;;;;;;;;;22.00;29.40;;;;;;5086188;28;20023;-63
2022/01/18 04:48:31;;;;;;;;;;;22.00;29.40;;;;;;5086643;28;19927;-63
2022/01/18 04:51:00;;;;;;;;;;;22.00;29.40;;;;;;5079327;28;19967;-64
2022/01/18 04:53:29;;;;;;;;;;;22.00;29.40;;;;;;5087358;28;20248;-64
2022/01/18 04:56:00;;;;;;;;;;;22.00;29.40;;;;;;5085190;28;19951;-64
2022/01/18 04:58:27;;;;;;;;;;;22.00;29.40;;;;;;5086427;28;19920;-63
2022/01/18 05:00:55;;;;;;;;;;;22.00;29.40;;;;;;5087139;28;20228;-63
2022/01/18 05:03:23;;;;;;;;;;;22.00;29.40;;;;;;5086677;28;19920;-63
2022/01/18 05:05:52;;;;;;;;;;;22.00;29.40;;;;;;5087109;28;20070;-63
2022/01/18 05:08:20;;;;;;;;;;;22.00;29.40;;;;;;5085981;28;19962;-63
2022/01/18 05:10:53;;;;;;;;;;;22.00;29.40;;;;;;5069005;28;19985;-63
2022/01/18 05:13:46;;;;;;;;;;;22.00;29.40;;;;;;5086532;28;19973;-63
2022/01/18 05:16:29;;;;;;;;;;;22.00;29.40;;;;;;5085935;28;20481;-62
2022/01/18 05:19:18;;;;;;;;;;;22.00;29.40;;;;;;5085648;28;19930;-63
2022/01/18 05:24:30;;;;;;;;;;;21.90;29.40;;;;;;5098827;28;20034;-63
2022/01/18 05:26:57;;;;;;;;;;;22.00;29.40;;;;;;5086625;28;19982;-63
2022/01/18 05:29:24;;;;;;;;;;;21.90;29.40;;;;;;5086730;28;19963;-63
2022/01/18 05:31:51;;;;;;;;;;;21.90;29.40;;;;;;5086108;28;20220;-63
2022/01/18 05:34:18;;;;;;;;;;;21.90;29.50;;;;;;5085982;28;19923;-63
2022/01/18 05:36:45;;;;;;;;;;;21.90;29.50;;;;;;5084836;28;19977;-63
2022/01/18 05:39:13;;;;;;;;;;;21.90;29.50;;;;;;5085883;28;19955;-63
2022/01/18 05:41:41;;;;;;;;;;;21.90;29.40;;;;;;5085449;28;19978;-63
2022/01/18 05:44:08;;;;;;;;;;;21.90;29.50;;;;;;5085364;28;20046;-63
2022/01/18 05:46:36;;;;;;;;;;;21.90;29.50;;;;;;5086847;28;19989;-63
2022/01/18 05:49:04;;;;;;;;;;;21.90;29.50;;;;;;5085937;28;19931;-63
2022/01/18 05:51:32;;;;;;;;;;;21.90;29.50;;;;;;5085597;28;20019;-64
2022/01/18 05:53:59;;;;;;;;;;;21.90;29.50;;;;;;5086171;28;19920;-63
2022/01/18 05:56:29;;;;;;;;;;;21.90;29.50;;;;;;5081545;28;19920;-63
2022/01/18 05:59:01;;;;;;;;;;;21.90;29.50;;;;;;5087487;28;19920;-63
2022/01/18 06:01:33;;;;;;;;;;;21.90;29.50;;;;;;5087509;28;20040;-63
2022/01/18 06:04:11;;;;;;;;;;;21.90;29.50;;;;;;5088127;28;20361;-63
2022/01/18 06:06:53;;;;;;;;;;;21.90;29.50;;;;;;5085869;28;19920;-63
2022/01/18 06:09:21;;;;;;;;;;;21.90;29.50;;;;;;5086163;28;19920;-63
2022/01/18 06:11:49;;;;;;;;;;;21.80;29.50;;;;;;5086104;28;20359;-63
2022/01/18 06:14:17;;;;;;;;;;;21.80;29.40;;;;;;5090999;28;19981;-63
2022/01/18 06:16:44;;;;;;;;;;;21.80;29.40;;;;;;5090588;28;19965;-63
2022/01/18 06:19:12;;;;;;;;;;;21.80;29.30;;;;;;5083907;28;20381;-65
2022/01/18 06:21:39;;;;;;;;;;;21.80;29.20;;;;;;5090499;28;19932;-66
2022/01/18 06:24:09;;;;;;;;;;;21.80;29.10;;;;;;5086822;28;19955;-64
2022/01/18 06:26:56;;;;;;;;;;;21.80;29.10;;;;;;5077409;28;19951;-62
2022/01/18 06:29:23;;;;;;;;;;;21.80;29.00;;;;;;5084389;28;19920;-63
2022/01/18 06:31:50;;;;;;;;;;;21.90;29.00;;;;;;5089104;28;20027;-64
2022/01/18 06:34:17;;;;;;;;;;;21.90;28.90;;;;;;5070243;28;19973;-64
2022/01/18 06:36:45;;;;;;;;;;;21.90;28.80;;;;;;5084597;28;20709;-64
2022/01/18 06:39:12;;;;;;;;;;;22.00;28.80;;;;;;5091737;28;19920;-64
2022/01/18 06:41:39;;;;;;;;;;;22.00;28.80;;;;;;5074207;28;20403;-63
2022/01/18 06:44:06;;;;;;;;;;;22.10;29.30;;;;;;5086877;28;20460;-64
2022/01/18 06:46:33;;;;;;;;;;;22.20;29.70;;;;;;5079814;28;19975;-64
2022/01/18 06:55:51;;;;;;;;;;;22.40;28.80;;;;;;5088969;28;20395;-64
2022/01/18 06:58:18;;;;;;;;;;;22.40;28.50;;;;;;5085395;28;19920;-65
2022/01/18 07:00:45;;;;;;;;;;;22.50;28.40;;;;;;5091908;28;19930;-67
2022/01/18 07:03:17;;;;;;;;;;;22.60;28.60;;;;;;5092282;28;19924;-67
2022/01/18 07:05:44;;;;;;;;;;;22.70;28.90;;;;;;5089922;28;19927;-65
2022/01/18 07:08:15;;;;;;;;;;;22.70;28.90;;;;;;5087634;28;19981;-64
2022/01/18 07:10:42;;;;;;;;;;;22.80;29.00;;;;;;5091520;28;19971;-67
2022/01/18 07:13:11;;;;;;;;;;;22.90;29.10;;;;;;5091061;28;19997;-62
2022/01/18 07:15:54;;;;;;;;;;;22.90;29.10;;;;;;5090867;28;20361;-61
2022/01/18 07:18:21;;;;;;;;;;;23.00;29.10;;;;;;5089876;28;19920;-62
2022/01/18 07:20:47;;;;;;;;;;;23.00;28.60;;;;;;5092110;28;20018;-62
2022/01/18 07:23:15;;;;;;;;;;;23.10;28.40;;;;;;5090921;28;19920;-65
2022/01/18 07:25:44;;;;;;;;;;;23.20;28.30;;;;;;5070454;28;19979;-65
2022/01/18 07:28:12;;;;;;;;;;;23.20;28.40;;;;;;5088302;28;19920;-66
2022/01/18 07:30:39;;;;;;;;;;;23.30;28.50;;;;;;5091552;28;19920;-68
2022/01/18 07:33:07;;;;;;;;;;;23.30;28.50;;;;;;5090137;28;19960;-63
2022/01/18 07:35:35;;;;;;;;;;;23.30;28.50;;;;;;5084360;28;19981;-65
2022/01/18 07:38:07;;;;;;;;;;;23.40;28.40;;;;;;5085816;28;20315;-65
2022/01/18 07:40:34;;;;;;;;;;;23.50;28.40;;;;;;5091663;28;19981;-66
2022/01/18 07:43:03;;;;;;;;;;;23.50;28.10;;;;;;5091701;28;19970;-67
2022/01/18 07:45:30;;;;;;;;;;;23.50;28.00;;;;;;5089422;28;19936;-67
2022/01/18 07:47:58;;;;;;;;;;;23.50;28.00;;;;;;5068023;28;20269;-61
2022/01/18 07:50:25;;;;;;;;;;;23.50;28.10;;;;;;5092347;28;19930;-63
2022/01/18 07:52:52;;;;;;;;;;;23.50;28.20;;;;;;5073961;28;19920;-64
2022/01/18 07:55:19;;;;;;;;;;;23.50;28.20;;;;;;5090549;28;19963;-66
2022/01/18 07:57:46;;;;;;;;;;;23.50;28.10;;;;;;5086546;28;19974;-66
2022/01/18 08:00:15;;;;;;;;;;;23.50;28.00;;;;;;5091558;28;19919;-67
2022/01/18 08:02:42;;;;;;;;;;;23.50;27.90;;;;;;5092210;28;19924;-68
2022/01/18 08:05:10;;;;;;;;;;;23.50;27.80;;;;;;5092105;28;19920;-67
2022/01/18 08:07:37;;;;;;;;;;;23.50;27.70;;;;;;5071488;28;20327;-67
2022/01/18 08:10:05;;;;;;;;;;;23.50;27.60;;;;;;5091159;28;19965;-67
2022/01/18 08:12:33;;;;;;;;;;;23.50;27.50;;;;;;5091400;28;20291;-67
2022/01/18 08:15:03;;;;;;;;;;;23.60;27.40;;;;;;5091315;28;19920;-68
2022/01/18 08:17:49;;;;;;;;;;;23.60;27.50;;;;;;5089219;28;20347;-67
2022/01/18 08:20:18;;;;;;;;;;;23.60;27.30;;;;;;5091478;28;19927;-71
2022/01/18 08:22:45;;;;;;;;;;;23.60;27.30;;;;;;5090652;28;19966;-66
2022/01/18 08:25:13;;;;;;;;;;;23.60;27.20;;;;;;5090255;28;19989;-66
2022/01/18 08:27:41;;;;;;;;;;;23.60;27.20;;;;;;5089112;28;19927;-67
2022/01/18 08:30:10;;;;;;;;;;;23.70;27.20;;;;;;5091766;28;19967;-69
2022/01/18 08:32:37;;;;;;;;;;;23.70;27.30;;;;;;5089547;28;19923;-64
2022/01/18 08:35:05;;;;;;;;;;;23.60;27.20;;;;;;5091255;28;20006;-64
2022/01/18 08:37:32;;;;;;;;;;;23.60;27.20;;;;;;5091722;28;20011;-68
2022/01/18 08:39:59;;;;;;;;;;;23.70;27.40;;;;;;5111275;28;20010;-67
2022/01/18 08:42:26;;;;;;;;;;;23.70;27.60;;;;;;5111029;28;19931;-69
2022/01/18 08:44:53;;;;;;;;;;;23.70;27.60;;;;;;5111271;28;19973;-67
2022/01/18 08:47:23;;;;;;;;;;;23.70;27.40;;;;;;5109366;28;19919;-67
2022/01/18 08:49:51;;;;;;;;;;;23.70;27.40;;;;;;5110884;28;19920;-66
2022/01/18 08:52:18;;;;;;;;;;;23.70;27.40;;;;;;5110380;28;19972;-65
2022/01/18 08:54:45;;;;;;;;;;;23.70;27.50;;;;;;5092722;28;19931;-65
2022/01/18 08:57:12;;;;;;;;;;;23.70;27.40;;;;;;5109737;28;20379;-66
2022/01/18 08:59:40;;;;;;;;;;;23.70;27.40;;;;;;5078836;28;20288;-68
2022/01/18 09:02:08;;;;;;;;;;;23.80;27.30;;;;;;5087009;28;20461;-65
2022/01/18 09:04:37;;;;;;;;;;;23.70;27.20;;;;;;5084539;28;19924;-68
2022/01/18 09:07:09;;;;;;;;;;;23.80;27.30;;;;;;5079085;28;20002;-67
2022/01/18 09:09:38;;;;;;;;;;;23.80;27.30;;;;;;5085317;28;19981;-67
2022/01/18 09:12:07;;;;;;;;;;;23.80;27.30;;;;;;5082834;28;19970;-67
2022/01/18 09:14:34;;;;;;;;;;;23.80;27.30;;;;;;5088803;28;19920;-68
2022/01/18 09:17:01;;;;;;;;;;;23.80;27.30;;;;;;5079571;28;19928;-68
2022/01/18 09:19:29;;;;;;;;;;;23.80;27.30;;;;;;5087850;28;19939;-64
2022/01/18 09:21:57;;;;;;;;;;;23.80;27.20;;;;;;5083273;28;20415;-68
2022/01/18 09:24:25;;;;;;;;;;;23.80;27.20;;;;;;5087089;28;20502;-67
2022/01/18 09:26:53;;;;;;;;;;;23.80;27.20;;;;;;5083684;28;19978;-67
2022/01/18 09:29:20;;;;;;;;;;;23.80;27.10;;;;;;5085574;28;19973;-68
2022/01/18 09:31:47;;;;;;;;;;;23.90;27.00;;;;;;5083807;28;19920;-66
2022/01/18 09:34:15;;;;;;;;;;;23.90;27.00;;;;;;5070194;28;19926;-67
2022/01/18 09:36:42;;;;;;;;;;;23.90;26.90;;;;;;5065994;28;19920;-68
2022/01/18 09:39:10;;;;;;;;;;;23.90;27.00;;;;;;5087907;28;19920;-68
2022/01/18 09:41:40;;;;;;;;;;;23.90;27.00;;;;;;5083205;28;19920;-68
2022/01/18 09:44:07;;;;;;;;;;;23.90;27.00;;;;;;5086034;28;19924;-66
2022/01/18 09:46:35;;;;;;;;;;;23.90;27.00;;;;;;5063615;28;19920;-67
2022/01/18 09:49:02;;;;;;;;;;;23.90;27.00;;;;;;5085245;28;19927;-68
2022/01/18 09:51:29;;;;;;;;;;;23.90;26.90;;;;;;5081011;28;19920;-66
2022/01/18 09:53:58;;;;;;;;;;;23.90;26.80;;;;;;5068129;28;19990;-66
2022/01/18 09:56:30;;;;;;;;;;;23.90;26.80;;;;;;5083719;28;19928;-65
2022/01/18 09:58:57;;;;;;;;;;;24.00;26.80;;;;;;5087047;28;19929;-66
2022/01/18 10:01:25;;;;;;;;;;;24.00;26.60;;;;;;5084271;28;19927;-67
2022/01/18 10:04:12;;;;;;;;;;;24.00;26.60;;;;;;5086958;28;19920;-66
2022/01/18 10:06:39;;;;;;;;;;;24.00;26.60;;;;;;5078980;28;19920;-66
2022/01/18 10:09:10;;;;;;;;;;;24.10;26.50;;;;;;5084057;28;19935;-71
2022/01/18 10:11:37;;;;;;;;;;;24.10;26.50;;;;;;5086493;28;20650;-66
2022/01/18 10:14:17;;;;;;;;;;;24.00;26.50;;;;;;5087902;28;19943;-63
2022/01/18 10:16:44;;;;;;;;;;;24.10;26.50;;;;;;5089421;28;19989;-66
2022/01/18 10:19:11;;;;;;;;;;;24.00;26.60;;;;;;5089415;28;20015;-68
2022/01/18 10:21:46;;;;;;;;;;;24.00;26.60;;;;;;5089052;28;20011;-67
2022/01/18 10:24:30;;;;;;;;;;;24.10;26.60;;;;;;5090467;28;20207;-66
2022/01/18 10:26:57;;;;;;;;;;;24.10;26.70;;;;;;5086654;28;19973;-67
2022/01/18 10:29:32;;;;;;;;;;;24.10;26.60;;;;;;5089749;28;20034;-68
2022/01/18 10:32:09;;;;;;;;;;;24.10;26.70;;;;;;5083474;28;19920;-67
2022/01/18 10:35:04;;;;;;;;;;;24.10;26.60;;;;;;5092452;28;19982;-67
2022/01/18 10:37:25;;;;;;;;;;;24.10;26.60;;;;;;5084539;28;19970;-67
2022/01/18 10:39:57;;;;;;;;;;;24.10;26.50;;;;;;5090006;28;19985;-66
2022/01/18 10:46:11;;;;;;;;;;;24.20;26.50;;;;;;5089653;28;20410;-64
2022/01/18 10:48:46;;;;;;;;;;;24.20;26.50;;;;;;5089348;28;20010;-63
2022/01/18 10:51:27;;;;;;;;;;;24.20;26.40;;;;;;5093062;28;19920;-66
2022/01/18 10:53:58;;;;;;;;;;;24.20;26.30;;;;;;5082528;28;19963;-66
2022/01/18 10:56:25;;;;;;;;;;;24.20;26.20;;;;;;5086850;28;19971;-66
2022/01/18 10:58:53;;;;;;;;;;;24.20;26.20;;;;;;5089754;28;20027;-66
2022/01/18 11:01:20;;;;;;;;;;;24.20;26.20;;;;;;5090733;28;19920;-68
2022/01/18 11:04:06;;;;;;;;;;;24.20;26.30;;;;;;5087206;28;19931;-67
2022/01/18 11:06:34;;;;;;;;;;;24.20;26.40;;;;;;5087662;28;19939;-67
2022/01/18 11:09:10;;;;;;;;;;;24.20;26.30;;;;;;5085191;28;20003;-66
2022/01/18 11:11:47;;;;;;;;;;;24.20;26.30;;;;;;5102079;28;20039;-66
2022/01/18 11:14:17;;;;;;;;;;;24.20;26.20;;;;;;5086555;28;20318;-67
2022/01/18 11:16:45;;;;;;;;;;;24.20;26.20;;;;;;5086545;28;20345;-66
2022/01/18 11:19:29;;;;;;;;;;;24.20;26.10;;;;;;5086494;28;20010;-66
2022/01/18 11:21:58;;;;;;;;;;;24.20;26.10;;;;;;5084406;28;19928;-66
2022/01/18 11:24:28;;;;;;;;;;;24.20;26.00;;;;;;5086111;28;19946;-66
2022/01/18 11:26:56;;;;;;;;;;;24.20;25.90;;;;;;5084645;28;20403;-66
2022/01/18 11:29:25;;;;;;;;;;;24.20;26.30;;;;;;5088890;28;19931;-66
2022/01/18 11:31:53;;;;;;;;;;;24.20;25.80;;;;;;5097400;28;19973;-65
2022/01/18 11:34:43;;;;;;;;;;;24.20;25.80;;;;;;5088188;28;20352;-65
2022/01/18 11:37:22;;;;;;;;;;;24.20;25.80;;;;;;5068390;28;19953;-66
2022/01/18 11:40:00;;;;;;;;;;;24.20;25.70;;;;;;5077898;28;19920;-66
2022/01/18 11:42:39;;;;;;;;;;;24.20;25.70;;;;;;5086485;28;20043;-66
2022/01/18 11:45:25;;;;;;;;;;;24.20;25.70;;;;;;5087011;28;19974;-66
2022/01/18 11:48:00;;;;;;;;;;;24.20;25.70;;;;;;5085954;28;19959;-66
2022/01/18 11:50:28;;;;;;;;;;;24.20;25.60;;;;;;5089676;28;20058;-67
2022/01/18 11:53:22;;;;;;;;;;;24.10;25.50;;;;;;5090302;28;19928;-66
2022/01/18 11:55:50;;;;;;;;;;;24.20;25.50;;;;;;5090096;28;20288;-66
2022/01/18 11:58:21;;;;;;;;;;;24.20;25.50;;;;;;5088435;28;19978;-66
2022/01/18 12:00:57;;;;;;;;;;;24.20;25.50;;;;;;5090597;28;19920;-66
2022/01/18 12:03:27;;;;;;;;;;;24.20;25.50;;;;;;5090191;28;19920;-66
2022/01/18 12:05:59;;;;;;;;;;;24.20;25.40;;;;;;5088851;28;19920;-65
2022/01/18 12:08:31;;;;;;;;;;;24.20;25.40;;;;;;5088383;28;20339;-62
2022/01/18 12:10:58;;;;;;;;;;;24.20;25.40;;;;;;5089807;28;20018;-62
2022/01/18 12:13:27;;;;;;;;;;;24.20;25.40;;;;;;5090491;28;20416;-62
2022/01/18 12:15:56;;;;;;;;;;;24.20;25.40;;;;;;5089126;28;20338;-62
2022/01/18 12:18:25;;;;;;;;;;;24.20;25.30;;;;;;5090081;28;19920;-63
2022/01/18 12:20:53;;;;;;;;;;;24.20;25.20;;;;;;5090640;28;19920;-62
2022/01/18 12:23:36;;;;;;;;;;;24.10;25.20;;;;;;5090750;28;19920;-65
2022/01/18 12:26:29;;;;;;;;;;;24.10;25.30;;;;;;5091016;28;19926;-64
2022/01/18 12:29:20;;;;;;;;;;;24.10;25.30;;;;;;5088078;28;19955;-65
2022/01/18 12:32:05;;;;;;;;;;;24.10;25.30;;;;;;5090097;28;19967;-66
2022/01/18 12:34:36;;;;;;;;;;;24.10;25.60;;;;;;5090532;28;19927;-69
2022/01/18 12:37:27;;;;;;;;;;;24.10;25.80;;;;;;5089788;28;19920;-67
2022/01/18 12:40:08;;;;;;;;;;;24.10;25.80;;;;;;5066100;28;20011;-67
2022/01/18 12:45:33;;;;;;;;;;;24.20;26.10;;;;;;5082944;28;19973;-69
2022/01/18 12:48:04;;;;;;;;;;;24.20;26.10;;;;;;5075581;28;19971;-68
2022/01/18 12:50:33;;;;;;;;;;;24.20;26.10;;;;;;5090333;28;19924;-65
2022/01/18 12:53:02;;;;;;;;;;;24.30;26.10;;;;;;5089252;28;20350;-66
2022/01/18 12:55:32;;;;;;;;;;;24.30;26.20;;;;;;5089792;28;19975;-63
2022/01/18 12:58:02;;;;;;;;;;;24.30;26.20;;;;;;5089012;28;20027;-65
2022/01/18 13:00:34;;;;;;;;;;;24.30;26.30;;;;;;5090499;28;19920;-65
2022/01/18 13:03:01;;;;;;;;;;;24.30;26.20;;;;;;5090553;28;19920;-64
2022/01/18 13:05:39;;;;;;;;;;;24.40;26.20;;;;;;5090883;28;19989;-63
2022/01/18 13:08:07;;;;;;;;;;;24.40;26.50;;;;;;5105848;28;19924;-64
2022/01/18 13:10:47;;;;;;;;;;;24.40;25.90;;;;;;5090831;28;20002;-62
2022/01/18 13:13:15;;;;;;;;;;;24.40;25.80;;;;;;5089867;28;19920;-63
2022/01/18 13:22:54;;;;;;;;;;;24.40;25.70;;;;;;5090211;28;19973;-64
2022/01/18 13:24:47;;;;;;;;;;;24.40;25.60;;;;;;5090356;28;19967;-66
2022/01/18 13:27:15;;;;;;;;;;;24.40;25.60;;;;;;5090078;28;20080;-66
2022/01/18 13:29:43;;;;;;;;;;;24.40;25.70;;;;;;5086476;28;19982;-62
2022/01/18 13:32:16;;;;;;;;;;;24.50;25.80;;;;;;5085121;28;19973;-67
2022/01/18 13:38:05;;;;;;;;;;;24.50;25.90;;;;;;5084620;28;19931;-68
2022/01/18 13:40:35;;;;;;;;;;;24.50;25.90;;;;;;5084208;28;20014;-68
2022/01/18 13:43:06;;;;;;;;;;;24.50;25.90;;;;;;5083775;28;19982;-68
2022/01/18 13:45:35;;;;;;;;;;;24.60;26.00;;;;;;5089348;28;19920;-71
2022/01/18 13:51:24;;;;;;;;;;;24.60;26.00;;;;;;5084252;28;19922;-71
2022/01/18 13:53:57;;;;;;;;;;;24.60;26.30;;;;;;5089555;28;19920;-65
2022/01/18 13:56:26;;;;;;;;;;;24.60;26.60;;;;;;5088934;28;20020;-65
2022/01/18 13:59:04;;;;;;;;;;;24.60;26.70;;;;;;5088736;28;19967;-71
2022/01/18 14:01:49;;;;;;;;;;;24.50;26.90;;;;;;5088013;28;19923;-71
2022/01/18 14:04:18;;;;;;;;;;;24.50;26.90;;;;;;5085064;28;19920;-66
2022/01/18 14:06:48;;;;;;;;;;;24.50;26.80;;;;;;5086010;28;19923;-68
2022/01/18 14:09:16;;;;;;;;;;;24.50;26.80;;;;;;5084630;28;20442;-69
2022/01/18 14:11:55;;;;;;;;;;;24.50;26.70;;;;;;5081658;28;20026;-65
2022/01/18 14:14:33;;;;;;;;;;;24.50;26.60;;;;;;5084050;28;19927;-66
2022/01/18 14:17:02;;;;;;;;;;;24.50;26.60;;;;;;5083801;28;20372;-66
2022/01/18 14:19:38;;;;;;;;;;;24.50;26.40;;;;;;5091863;28;20003;-66
2022/01/18 14:22:14;;;;;;;;;;;24.50;26.30;;;;;;5084781;28;20350;-66
2022/01/18 14:24:42;;;;;;;;;;;24.50;26.10;;;;;;5085797;28;20350;-65
2022/01/18 14:27:12;;;;;;;;;;;24.40;26.00;;;;;;5081188;28;19927;-64
2022/01/18 14:29:48;;;;;;;;;;;24.40;25.90;;;;;;5087244;28;19920;-66
2022/01/18 14:32:20;;;;;;;;;;;24.40;25.90;;;;;;5093390;28;19974;-66
2022/01/18 14:34:48;;;;;;;;;;;24.30;25.90;;;;;;5088691;28;20413;-65
2022/01/18 14:37:16;;;;;;;;;;;24.30;26.10;;;;;;5069159;28;19934;-65
2022/01/18 14:40:00;;;;;;;;;;;24.30;26.20;;;;;;5085175;28;19973;-66
2022/01/18 14:49:20;;;;;;;;;;;24.30;26.30;;;;;;5089462;28;19920;-66
2022/01/18 14:51:47;;;;;;;;;;;24.30;26.40;;;;;;5089852;28;19977;-67
2022/01/18 14:54:14;;;;;;;;;;;24.30;26.40;;;;;;5088894;28;19963;-66
2022/01/18 14:56:51;;;;;;;;;;;24.30;26.40;;;;;;5091648;28;19926;-65
2022/01/18 14:59:22;;;;;;;;;;;24.30;26.40;;;;;;5093328;28;19966;-65
2022/01/18 15:01:51;;;;;;;;;;;24.30;26.40;;;;;;5093093;28;19920;-66
2022/01/18 15:04:19;;;;;;;;;;;24.30;26.40;;;;;;5076160;28;19920;-66
2022/01/18 15:06:46;;;;;;;;;;;24.30;26.40;;;;;;5073182;28;19970;-65
2022/01/18 15:09:13;;;;;;;;;;;24.30;26.40;;;;;;5072308;28;20019;-64
2022/01/18 15:11:40;;;;;;;;;;;24.30;26.40;;;;;;5073635;28;19964;-64
2022/01/18 15:14:07;;;;;;;;;;;24.30;26.40;;;;;;5087385;28;19958;-64
2022/01/18 15:16:34;;;;;;;;;;;24.30;26.30;;;;;;5093513;28;19924;-66
2022/01/18 15:19:01;;;;;;;;;;;24.30;26.20;;;;;;5093346;28;20043;-70
2022/01/18 15:21:28;;;;;;;;;;;24.20;26.40;;;;;;5090375;28;20335;-66
2022/01/18 15:23:55;;;;;;;;;;;24.20;26.50;;;;;;5091156;28;19971;-67
2022/01/18 15:26:23;;;;;;;;;;;24.20;26.60;;;;;;5092952;28;20428;-66
2022/01/18 15:28:52;;;;;;;;;;;24.20;26.70;;;;;;5091221;28;19920;-66
2022/01/18 15:31:19;;;;;;;;;;;24.20;26.70;;;;;;5092091;28;20011;-67
2022/01/18 15:33:46;;;;;;;;;;;24.20;26.70;;;;;;5091954;28;20360;-66
2022/01/18 15:36:13;;;;;;;;;;;24.10;26.60;;;;;;5092933;28;20018;-65
2022/01/18 15:38:40;;;;;;;;;;;24.10;26.50;;;;;;5092719;28;19959;-65
2022/01/18 15:41:07;;;;;;;;;;;24.10;26.40;;;;;;5093219;28;20008;-66
2022/01/18 15:43:34;;;;;;;;;;;24.10;26.40;;;;;;5093142;28;20291;-65
2022/01/18 15:46:02;;;;;;;;;;;24.00;26.20;;;;;;5093095;28;20432;-66
2022/01/18 15:48:29;;;;;;;;;;;24.00;26.20;;;;;;5091192;28;20353;-65